createdAt,value
2022-09-20T00:01:16.265Z,102041.78
2022-09-20T00:03:48.640Z,102047.09
2022-09-20T00:06:21.223Z,102052.38
2022-09-20T00:08:51.777Z,102054.97
2022-09-20T00:11:24.338Z,102054.06
2022-09-20T00:13:58.340Z,102054.06
2022-09-20T00:16:29.756Z,102048.78
2022-09-20T00:19:01.177Z,102058.50
2022-09-20T00:21:32.821Z,102054.06
2022-09-20T00:24:03.307Z,102054.97
2022-09-20T00:26:33.136Z,102048.78
2022-09-20T00:29:06.372Z,102048.81
2022-09-20T00:31:37.304Z,102059.41
2022-09-20T00:34:19.479Z,102059.47
2022-09-20T00:36:49.169Z,102053.34
2022-09-20T00:39:20.009Z,102049.72
2022-09-20T00:41:49.820Z,102058.59
2022-09-20T00:44:47.877Z,102065.59
2022-09-20T00:47:25.323Z,102068.22
2022-09-20T00:50:01.360Z,102059.41
2022-09-20T00:52:32.859Z,102063.72
2022-09-20T00:55:03.927Z,102055.75
2022-09-20T00:57:35.532Z,102064.50
2022-09-20T01:00:11.537Z,102060.94
2022-09-20T01:02:45.755Z,102053.91
2022-09-20T01:05:18.031Z,102053.91
2022-09-20T01:07:49.837Z,102052.13
2022-09-20T01:10:19.613Z,102054.56
2022-09-20T01:12:51.852Z,102057.13
2022-09-20T01:15:27.930Z,102051.72
2022-09-20T01:18:00.853Z,102061.41
2022-09-20T01:20:33.566Z,102047.34
2022-09-20T01:23:19.046Z,102048.28
2022-09-20T01:26:27.404Z,102042.91
2022-09-20T01:29:09.257Z,102049.88
2022-09-20T01:31:47.670Z,102052.47
2022-09-20T01:34:21.440Z,102040.88
2022-09-20T01:36:54.942Z,102045.19
2022-09-20T01:39:34.151Z,102051.25
2022-09-20T01:42:08.518Z,102054.78
2022-09-20T01:44:48.066Z,102042.44
2022-09-20T01:47:30.861Z,102046.06
2022-09-20T01:50:10.447Z,102053.13
2022-09-20T01:53:12.417Z,102054.03
2022-09-20T01:56:13.027Z,102052.16
2022-09-20T01:59:27.025Z,102052.94
2022-09-20T02:02:18.058Z,102058.00
2022-09-20T02:05:31.971Z,102048.94
2022-09-20T02:08:24.123Z,102053.91
2022-09-20T02:11:08.830Z,102059.75
2022-09-20T02:14:09.989Z,102058.63
2022-09-20T02:16:55.075Z,102060.06
2022-09-20T02:19:44.310Z,102059.84
2022-09-20T02:22:34.499Z,102050.88
2022-09-20T02:25:15.049Z,102051.63
2022-09-20T02:27:59.911Z,102061.97
2022-09-20T02:30:44.817Z,102061.03
2022-09-20T02:33:26.667Z,102061.72
2022-09-20T02:36:17.964Z,102055.25
2022-09-20T02:39:01.001Z,102067.19
2022-09-20T02:41:44.823Z,102060.91
2022-09-20T02:44:23.853Z,102058.09
2022-09-20T02:47:02.215Z,102056.28
2022-09-20T02:49:41.983Z,102058.84
2022-09-20T02:52:26.227Z,102059.69
2022-09-20T02:55:05.452Z,102059.56
2022-09-20T02:57:46.329Z,102056.84
2022-09-20T03:00:21.255Z,102059.34
2022-09-20T03:03:08.036Z,102055.72
2022-09-20T03:05:47.589Z,102060.03
2022-09-20T03:08:40.125Z,102067.03
2022-09-20T03:11:22.567Z,102062.53
2022-09-20T03:14:06.038Z,102061.63
2022-09-20T03:16:51.940Z,102057.19
2022-09-20T03:19:36.769Z,102062.47
2022-09-20T03:22:19.751Z,102062.38
2022-09-20T03:25:04.190Z,102055.31
2022-09-20T03:27:45.133Z,102064.94
2022-09-20T03:30:30.648Z,102064.94
2022-09-20T03:33:09.462Z,102068.28
2022-09-20T03:35:53.736Z,102075.00
2022-09-20T03:38:45.735Z,102068.59
2022-09-20T03:41:32.247Z,102063.94
2022-09-20T03:44:18.208Z,102065.75
2022-09-20T03:46:49.561Z,102068.47
2022-09-20T03:49:55.136Z,102068.59
2022-09-20T03:52:47.543Z,102066.94
2022-09-20T03:55:42.218Z,102067.16
2022-09-20T03:58:31.172Z,102067.22
2022-09-20T04:01:19.280Z,102062.03
2022-09-20T04:03:56.273Z,102067.34
2022-09-20T04:06:43.021Z,102068.34
2022-09-20T04:09:32.486Z,102070.16
2022-09-20T04:12:08.369Z,102064.03
2022-09-20T04:14:47.658Z,102068.50
2022-09-20T04:17:29.991Z,102066.75
2022-09-20T04:20:06.816Z,102067.66
2022-09-20T04:22:37.120Z,102066.75
2022-09-20T04:25:16.203Z,102063.22
2022-09-20T04:27:49.879Z,102065.88
2022-09-20T04:30:27.029Z,102062.31
2022-09-20T04:33:03.411Z,102064.88
2022-09-20T04:35:55.964Z,102071.16
2022-09-20T04:38:26.492Z,102072.81
2022-09-20T04:41:23.486Z,102066.63
2022-09-20T04:44:30.105Z,102075.44
2022-09-20T04:47:35.596Z,102075.34
2022-09-20T04:50:36.374Z,102077.19
2022-09-20T04:53:33.564Z,102078.88
2022-09-20T04:56:04.769Z,102081.53
2022-09-20T04:58:40.700Z,102077.22
2022-09-20T05:01:42.730Z,102091.50
2022-09-20T05:05:00.402Z,102100.34
2022-09-20T05:08:03.405Z,102099.44
2022-09-20T05:11:10.029Z,102100.22
2022-09-20T05:13:54.023Z,102106.31
2022-09-20T05:16:28.412Z,102102.72
2022-09-20T05:19:28.764Z,102097.44
2022-09-20T05:22:28.587Z,102102.78
2022-09-20T05:25:15.245Z,102101.94
2022-09-20T05:27:49.493Z,102110.84
2022-09-20T05:30:34.524Z,102106.56
2022-09-20T05:33:20.581Z,102113.75
2022-09-20T05:36:02.246Z,102107.72
2022-09-20T05:38:47.392Z,102112.38
2022-09-20T05:41:26.881Z,102113.50
2022-09-20T05:44:08.985Z,102113.78
2022-09-20T05:46:49.761Z,102116.69
2022-09-20T05:49:29.135Z,102113.47
2022-09-20T05:52:25.461Z,102128.69
2022-09-20T05:55:22.409Z,102133.19
2022-09-20T05:58:08.495Z,102140.34
2022-09-20T06:00:45.253Z,102144.78
2022-09-20T06:03:25.187Z,102151.94
2022-09-20T06:06:05.437Z,102149.38
2022-09-20T06:08:52.045Z,102153.00
2022-09-20T06:11:50.357Z,102152.16
2022-09-20T06:14:29.513Z,102150.56
2022-09-20T06:17:07.825Z,102148.84
2022-09-20T06:19:45.680Z,102143.69
2022-09-20T06:22:21.138Z,102152.78
2022-09-20T06:24:54.656Z,102146.88
2022-09-20T06:27:31.235Z,102149.72
2022-09-20T06:30:05.922Z,102149.09
2022-09-20T06:32:36.332Z,102154.63
2022-09-20T06:35:08.092Z,102154.03
2022-09-20T06:37:58.829Z,102149.78
2022-09-20T06:40:49.490Z,102161.38
2022-09-20T06:43:21.835Z,102165.88
2022-09-20T06:45:51.546Z,102164.25
2022-09-20T06:48:21.300Z,102164.38
2022-09-20T06:50:52.405Z,102167.22
2022-09-20T06:53:27.688Z,102166.56
2022-09-20T06:55:57.600Z,102172.16
2022-09-20T06:58:30.128Z,102174.91
2022-09-20T07:00:59.871Z,102176.78
2022-09-20T07:03:29.669Z,102181.31
2022-09-20T07:06:00.626Z,102169.25
2022-09-20T07:08:30.494Z,102180.97
2022-09-20T07:11:00.228Z,102178.63
2022-09-20T07:13:32.800Z,102183.38
2022-09-20T07:16:07.727Z,102185.56
2022-09-20T07:18:38.416Z,102173.56
2022-09-20T07:21:08.340Z,102186.38
2022-09-20T07:23:38.033Z,102178.75
2022-09-20T07:26:08.452Z,102182.56
2022-09-20T07:28:40.768Z,102187.97
2022-09-20T07:31:10.715Z,102191.69
2022-09-20T07:33:40.407Z,102189.34
2022-09-20T07:36:10.905Z,102187.28
2022-09-20T07:38:40.629Z,102194.84
2022-09-20T07:41:10.860Z,102190.88
2022-09-20T07:43:43.359Z,102195.69
2022-09-20T07:46:13.846Z,102197.94
2022-09-20T07:48:43.987Z,102200.19
2022-09-20T07:51:15.592Z,102206.00
2022-09-20T07:53:45.305Z,102203.44
2022-09-20T07:56:18.341Z,102211.69
2022-09-20T07:58:52.499Z,102212.22
2022-09-20T08:01:23.657Z,102211.03
2022-09-20T08:03:54.984Z,102216.81
2022-09-20T08:06:25.125Z,102219.75
2022-09-20T08:08:54.964Z,102225.13
2022-09-20T08:11:29.751Z,102231.25
2022-09-20T08:14:06.145Z,102241.44
2022-09-20T08:16:41.038Z,102242.13
2022-09-20T08:19:11.620Z,102237.72
2022-09-20T08:21:41.445Z,102236.91
2022-09-20T08:24:11.112Z,102231.72
2022-09-20T08:26:40.809Z,102226.63
2022-09-20T08:29:15.147Z,102227.69
2022-09-20T08:31:45.221Z,102226.00
2022-09-20T08:34:17.161Z,102235.81
2022-09-20T08:36:51.924Z,102229.53
2022-09-20T08:42:21.290Z,102236.63
2022-09-20T08:44:58.865Z,102237.59
2022-09-20T08:47:31.702Z,102241.16
2022-09-20T08:50:11.533Z,102234.94
2022-09-20T08:52:43.360Z,102237.66
2022-09-20T08:55:20.011Z,102242.19
2022-09-20T08:57:53.144Z,102245.66
2022-09-20T09:00:29.680Z,102242.19
2022-09-20T09:03:02.627Z,102246.63
2022-09-20T09:05:35.280Z,102239.44
2022-09-20T09:08:09.777Z,102243.06
2022-09-20T09:10:43.095Z,102234.22
2022-09-20T09:13:25.332Z,102239.53
2022-09-20T09:16:01.712Z,102236.22
2022-09-20T09:18:36.895Z,102237.47
2022-09-20T09:21:09.525Z,102239.78
2022-09-20T09:23:44.468Z,102239.25
2022-09-20T09:26:23.464Z,102237.03
2022-09-20T09:29:11.961Z,102239.19
2022-09-20T09:31:45.388Z,102242.13
2022-09-20T09:34:30.109Z,102242.66
2022-09-20T09:37:00.624Z,102242.13
2022-09-20T09:39:32.053Z,102248.75
2022-09-20T09:42:02.749Z,102240.22
2022-09-20T09:44:34.148Z,102246.75
2022-09-20T09:47:06.571Z,102246.25
2022-09-20T09:49:36.988Z,102248.13
2022-09-20T09:52:15.913Z,102244.75
2022-09-20T09:54:50.742Z,102251.28
2022-09-20T09:57:35.898Z,102246.16
2022-09-20T10:00:20.952Z,102249.91
2022-09-20T10:03:29.257Z,102258.91
2022-09-20T10:06:12.431Z,102255.16
2022-09-20T10:08:54.087Z,102261.19
2022-09-20T10:11:34.388Z,102258.38
2022-09-20T10:14:16.966Z,102262.66
2022-09-20T10:17:02.947Z,102265.00
2022-09-20T10:19:50.372Z,102270.09
2022-09-20T10:22:28.683Z,102263.72
2022-09-20T10:25:10.430Z,102260.00
2022-09-20T10:27:56.339Z,102262.50
2022-09-20T10:30:28.937Z,102262.41
2022-09-20T10:33:06.622Z,102258.72
2022-09-20T10:35:55.858Z,102266.56
2022-09-20T10:38:29.854Z,102264.72
2022-09-20T10:41:51.175Z,102266.50
2022-09-20T10:44:43.775Z,102264.75
2022-09-20T10:47:20.436Z,102264.72
2022-09-20T10:50:00.741Z,102265.63
2022-09-20T10:53:01.841Z,102263.97
2022-09-20T10:55:42.167Z,102272.03
2022-09-20T10:58:45.452Z,102269.38
2022-09-20T11:01:23.796Z,102279.03
2022-09-20T11:04:20.269Z,102278.19
2022-09-20T11:06:58.675Z,102275.66
2022-09-20T11:09:37.288Z,102280.22
2022-09-20T11:12:15.539Z,102277.56
2022-09-20T11:14:51.392Z,102275.78
2022-09-20T11:17:27.323Z,102275.94
2022-09-20T11:20:07.206Z,102270.75
2022-09-20T11:22:43.932Z,102278.06
2022-09-20T11:25:24.947Z,102280.94
2022-09-20T11:28:04.223Z,102281.22
2022-09-20T11:30:37.159Z,102284.84
2022-09-20T11:33:16.336Z,102276.94
2022-09-20T11:35:51.081Z,102277.81
2022-09-20T11:38:25.651Z,102275.09
2022-09-20T11:41:14.688Z,102281.38
2022-09-20T11:43:46.096Z,102275.16
2022-09-20T11:46:21.921Z,102278.75
2022-09-20T11:48:57.367Z,102277.03
2022-09-20T11:51:52.222Z,102280.69
2022-09-20T11:54:46.937Z,102279.88
2022-09-20T11:57:19.842Z,102270.97
2022-09-20T11:59:54.812Z,102278.03
2022-09-20T12:02:30.036Z,102278.91
2022-09-20T12:05:02.146Z,102276.38
2022-09-20T12:07:38.179Z,102275.56
2022-09-20T12:10:21.440Z,102284.50
2022-09-20T12:13:00.352Z,102291.66
2022-09-20T12:15:36.694Z,102284.50
2022-09-20T12:18:33.214Z,102282.72
2022-09-20T12:21:19.804Z,102290.53
2022-09-20T12:24:23.864Z,102300.38
2022-09-20T12:26:59.693Z,102300.25
2022-09-20T12:30:16.151Z,102294.97
2022-09-20T12:33:02.355Z,102288.66
2022-09-20T12:36:19.486Z,102289.50
2022-09-20T12:39:05.409Z,102303.44
2022-09-20T12:41:49.976Z,102299.34
2022-09-20T12:44:29.527Z,102301.59
2022-09-20T12:47:04.395Z,102293.31
2022-09-20T12:49:51.373Z,102288.59
2022-09-20T12:52:54.065Z,102299.91
2022-09-20T12:55:49.808Z,102286.47
2022-09-20T12:58:34.249Z,102295.47
2022-09-20T13:01:32.953Z,102297.31
2022-09-20T13:04:32.857Z,102304.50
2022-09-20T13:07:38.914Z,102297.53
2022-09-20T13:10:31.247Z,102293.09
2022-09-20T13:13:06.817Z,102297.66
2022-09-20T13:15:39.134Z,102296.94
2022-09-20T13:18:11.419Z,102295.25
2022-09-20T13:20:41.695Z,102298.25
2022-09-20T13:23:22.339Z,102299.28
2022-09-20T13:25:53.017Z,102293.88
2022-09-20T13:28:33.082Z,102301.00
2022-09-20T13:31:30.952Z,102299.97
2022-09-20T13:34:16.652Z,102304.41
2022-09-20T13:36:46.457Z,102288.44
2022-09-20T13:39:31.580Z,102307.19
2022-09-20T13:42:07.776Z,102307.06
2022-09-20T13:44:38.729Z,102302.69
2022-09-20T13:47:30.229Z,102310.66
2022-09-20T13:50:04.007Z,102312.97
2022-09-20T13:52:35.037Z,102313.69
2022-09-20T13:55:29.280Z,102326.72
2022-09-20T13:58:03.347Z,102317.53
2022-09-20T14:00:35.060Z,102318.84
2022-09-20T14:03:04.929Z,102328.94
2022-09-20T14:05:35.344Z,102334.03
2022-09-20T14:08:07.614Z,102322.38
2022-09-20T14:10:43.845Z,102337.06
2022-09-20T14:13:19.163Z,102320.84
2022-09-20T14:15:50.700Z,102321.66
2022-09-20T14:18:22.648Z,102328.59
2022-09-20T14:20:53.469Z,102323.28
2022-09-20T14:23:25.430Z,102320.75
2022-09-20T14:26:25.864Z,102324.31
2022-09-20T14:28:55.667Z,102335.00
2022-09-20T14:31:29.027Z,102332.44
2022-09-20T14:34:01.296Z,102322.78
2022-09-20T14:36:33.291Z,102339.69
2022-09-20T14:39:06.148Z,102335.06
2022-09-20T14:41:42.038Z,102350.00
2022-09-20T14:44:26.548Z,102342.66
2022-09-20T14:46:57.784Z,102348.84
2022-09-20T14:49:36.332Z,102339.09
2022-09-20T14:52:35.047Z,102341.78
2022-09-20T14:55:13.892Z,102341.66
2022-09-20T14:57:47.204Z,102339.03
2022-09-20T15:00:20.789Z,102339.09
2022-09-20T15:02:51.176Z,102348.75
2022-09-20T15:05:26.117Z,102338.94
2022-09-20T15:07:57.931Z,102341.75
2022-09-20T15:10:27.724Z,102336.47
2022-09-20T15:13:00.000Z,102339.28
2022-09-20T15:15:29.884Z,102338.56
2022-09-20T15:17:59.632Z,102336.88
2022-09-20T15:20:29.357Z,102336.88
2022-09-20T15:22:59.252Z,102343.94
2022-09-20T15:25:30.073Z,102346.50
2022-09-20T15:28:03.256Z,102342.88
2022-09-20T15:30:33.237Z,102337.56
2022-09-20T15:33:03.373Z,102353.44
2022-09-20T15:35:33.164Z,102351.59
2022-09-20T15:38:02.873Z,102344.50
2022-09-20T15:40:32.724Z,102341.84
2022-09-20T15:43:05.614Z,102350.63
2022-09-20T15:45:35.342Z,102350.59
2022-09-20T15:48:05.782Z,102343.34
2022-09-20T15:50:35.477Z,102347.63
2022-09-20T15:53:05.742Z,102350.19
2022-09-20T15:55:35.424Z,102341.06
2022-09-20T15:58:07.808Z,102353.31
2022-09-20T16:00:39.412Z,102349.66
2022-09-20T16:03:09.120Z,102352.16
2022-09-20T16:05:38.786Z,102349.41
2022-09-20T16:08:08.488Z,102346.75
2022-09-20T16:10:38.640Z,102351.97
2022-09-20T16:13:10.935Z,102361.69
2022-09-20T16:15:40.635Z,102358.25
2022-09-20T16:18:29.161Z,102361.75
2022-09-20T16:21:09.255Z,102364.44
2022-09-20T16:23:39.985Z,102367.09
2022-09-20T16:26:13.395Z,102372.47
2022-09-20T16:28:47.695Z,102366.28
2022-09-20T16:31:34.828Z,102369.75
2022-09-20T16:34:05.504Z,102370.53
2022-09-20T16:36:35.681Z,102375.84
2022-09-20T16:39:05.387Z,102372.31
2022-09-20T16:41:35.090Z,102380.28
2022-09-20T16:44:07.676Z,102378.59
2022-09-20T16:46:38.035Z,102381.25
2022-09-20T16:49:09.588Z,102379.56
2022-09-20T16:51:41.243Z,102389.41
2022-09-20T16:54:12.725Z,102380.72
2022-09-20T16:56:44.732Z,102385.16
2022-09-20T16:59:18.736Z,102387.91
2022-09-20T17:01:48.537Z,102393.34
2022-09-20T17:04:21.259Z,102399.59
2022-09-20T17:06:52.305Z,102397.06
2022-09-20T17:09:22.523Z,102391.75
2022-09-20T17:11:53.857Z,102397.88
2022-09-20T17:14:26.377Z,102401.31
2022-09-20T17:16:56.813Z,102401.19
2022-09-20T17:19:26.665Z,102399.41
2022-09-20T17:21:56.359Z,102400.19
2022-09-20T17:24:26.439Z,102399.19
2022-09-20T17:26:56.126Z,102401.78
2022-09-20T17:29:28.536Z,102405.34
2022-09-20T17:31:59.949Z,102406.19
2022-09-20T17:34:31.744Z,102403.47
2022-09-20T17:37:01.801Z,102406.91
2022-09-20T17:39:31.503Z,102406.72
2022-09-20T17:42:01.546Z,102421.44
2022-09-20T17:44:36.831Z,102422.06
2022-09-20T17:47:07.311Z,102417.31
2022-09-20T17:49:38.532Z,102423.31
2022-09-20T17:52:09.008Z,102415.28
2022-09-20T17:54:39.672Z,102410.91
2022-09-20T17:57:09.390Z,102418.00
2022-09-20T17:59:41.839Z,102417.09
2022-09-20T18:02:12.787Z,102424.16
2022-09-20T18:04:42.692Z,102430.38
2022-09-20T18:07:12.396Z,102431.38
2022-09-20T18:09:42.105Z,102438.44
2022-09-20T18:12:16.682Z,102439.31
2022-09-20T18:14:50.525Z,102434.91
2022-09-20T18:17:20.221Z,102444.63
2022-09-20T18:19:50.112Z,102445.53
2022-09-20T18:22:19.795Z,102437.53
2022-09-20T18:24:49.477Z,102443.72
2022-09-20T18:27:19.176Z,102447.25
2022-09-20T18:29:51.821Z,102444.53
2022-09-20T18:32:21.501Z,102443.53
2022-09-20T18:34:51.998Z,102451.25
2022-09-20T18:37:21.663Z,102451.13
2022-09-20T18:39:51.685Z,102451.84
2022-09-20T18:42:21.369Z,102454.25
2022-09-20T18:44:56.377Z,102457.66
2022-09-20T18:47:26.081Z,102462.84
2022-09-20T18:49:55.765Z,102460.91
2022-09-20T18:52:25.564Z,102458.94
2022-09-20T18:54:56.777Z,102464.16
2022-09-20T18:57:27.076Z,102460.53
2022-09-20T19:00:03.612Z,102470.03
2022-09-20T19:03:10.013Z,102476.97
2022-09-20T19:05:46.651Z,102473.22
2022-09-20T19:08:28.438Z,102478.34
2022-09-20T19:11:04.405Z,102478.16
2022-09-20T19:13:42.773Z,102481.44
2022-09-20T19:16:22.098Z,102481.34
2022-09-20T19:19:06.916Z,102479.38
2022-09-20T19:21:45.842Z,102493.31
2022-09-20T19:24:27.089Z,102491.41
2022-09-20T19:26:57.104Z,102495.63
2022-09-20T19:29:28.708Z,102496.38
2022-09-20T19:32:02.369Z,102485.59
2022-09-20T19:34:33.720Z,102488.94
2022-09-20T19:37:18.794Z,102495.91
2022-09-20T19:40:10.880Z,102492.09
2022-09-20T19:42:54.926Z,102499.84
2022-09-20T19:45:31.932Z,102499.59
2022-09-20T19:48:14.666Z,102498.50
2022-09-20T19:50:47.571Z,102512.44
2022-09-20T19:53:19.548Z,102507.94
2022-09-20T19:55:52.817Z,102511.25
2022-09-20T19:58:22.966Z,102514.59
2022-09-20T20:00:53.518Z,102520.59
2022-09-20T20:03:27.617Z,102522.13
2022-09-20T20:06:08.115Z,102516.63
2022-09-20T20:08:46.393Z,102534.09
2022-09-20T20:11:23.663Z,102523.31
2022-09-20T20:14:07.230Z,102517.81
2022-09-20T20:16:44.817Z,102523.88
2022-09-20T20:19:49.432Z,102527.13
2022-09-20T20:22:35.737Z,102522.44
2022-09-20T20:25:05.965Z,102532.91
2022-09-20T20:27:35.641Z,102531.84
2022-09-20T20:30:05.472Z,102524.59
2022-09-20T20:32:35.131Z,102528.91
2022-09-20T20:35:08.597Z,102538.34
2022-09-20T20:37:38.515Z,102533.84
2022-09-20T20:40:13.451Z,102548.66
2022-09-20T20:42:43.611Z,102551.13
2022-09-20T20:45:13.918Z,102545.66
2022-09-20T20:47:44.230Z,102544.56
2022-09-20T20:50:16.623Z,102548.88
2022-09-20T20:52:46.285Z,102544.28
2022-09-20T20:55:16.491Z,102545.94
2022-09-20T20:57:46.236Z,102551.97
2022-09-20T21:00:17.444Z,102550.00
2022-09-20T21:02:47.820Z,102548.13
2022-09-20T21:05:22.397Z,102549.78
2022-09-20T21:07:55.138Z,102559.41
2022-09-20T21:10:25.461Z,102564.50
2022-09-20T21:12:57.730Z,102568.00
2022-09-20T21:15:28.089Z,102560.72
2022-09-20T21:17:57.779Z,102557.13
2022-09-20T21:20:32.621Z,102563.22
2022-09-20T21:23:02.323Z,102562.13
2022-09-20T21:25:32.145Z,102570.81
2022-09-20T21:28:01.981Z,102577.75
2022-09-20T21:30:31.733Z,102570.66
2022-09-20T21:33:01.393Z,102569.59
2022-09-20T21:35:36.509Z,102575.72
2022-09-20T21:38:06.381Z,102578.25
2022-09-20T21:40:41.265Z,102579.91
2022-09-20T21:43:14.141Z,102577.13
2022-09-20T21:45:46.603Z,102570.78
2022-09-20T21:48:16.330Z,102579.47
2022-09-20T21:50:48.736Z,102576.63
2022-09-20T21:53:19.361Z,102586.25
2022-09-20T21:55:49.144Z,102588.78
2022-09-20T21:58:18.820Z,102586.91
2022-09-20T22:00:59.165Z,102585.91
2022-09-20T22:03:32.324Z,102583.13
2022-09-20T22:06:14.245Z,102581.31
2022-09-20T22:08:49.368Z,102589.97
2022-09-20T22:11:19.757Z,102585.44
2022-09-20T22:14:01.023Z,102583.63
2022-09-20T22:16:34.807Z,102588.75
2022-09-20T22:19:04.539Z,102589.56
2022-09-20T22:21:38.894Z,102585.00
2022-09-20T22:24:10.729Z,102579.59
2022-09-20T22:26:47.211Z,102588.34
2022-09-20T22:29:17.730Z,102576.69
2022-09-20T22:31:50.252Z,102588.94
2022-09-20T22:34:22.576Z,102590.56
2022-09-20T22:36:55.081Z,102598.41
2022-09-20T22:39:28.020Z,102596.50
2022-09-20T22:41:57.910Z,102596.44
2022-09-20T22:44:27.891Z,102596.34
2022-09-20T22:46:57.797Z,102590.00
2022-09-20T22:49:27.705Z,102591.72
2022-09-20T22:52:00.203Z,102593.38
2022-09-20T22:54:33.963Z,102596.78
2022-09-20T22:57:03.876Z,102601.06
2022-09-20T22:59:33.794Z,102607.97
2022-09-20T23:02:03.744Z,102598.16
2022-09-20T23:04:33.675Z,102590.97
2022-09-20T23:07:06.189Z,102595.25
2022-09-20T23:09:36.050Z,102599.47
2022-09-20T23:12:05.987Z,102602.03
2022-09-20T23:14:35.879Z,102604.56
2022-09-20T23:17:05.763Z,102608.78
2022-09-20T23:19:35.664Z,102610.41
2022-09-20T23:22:08.151Z,102608.50
2022-09-20T23:24:38.067Z,102611.09
2022-09-20T23:27:08.334Z,102606.63
2022-09-20T23:29:38.211Z,102611.72
2022-09-20T23:32:08.146Z,102602.81
2022-09-20T23:34:38.009Z,102603.56
2022-09-20T23:37:10.539Z,102604.38
2022-09-20T23:39:42.561Z,102606.81
2022-09-20T23:42:12.458Z,102604.13
2022-09-20T23:44:42.444Z,102604.88
2022-09-20T23:47:12.476Z,102608.13
2022-09-20T23:49:42.372Z,102613.25
2022-09-20T23:52:14.852Z,102611.25
2022-09-20T23:54:44.730Z,102610.28
2022-09-20T23:57:15.439Z,102616.16
2022-09-20T23:59:45.328Z,102608.06
